sensor_id;sensor_type;location;lat;lon;timestamp;P1;durP1;ratioP1;P2;durP2;ratioP2
75858;SDS011;64504;51.308;8.620;2023-03-21T00:00:36;12.95;;;10.52;;
75858;SDS011;64504;51.308;8.620;2023-03-21T00:03:04;19.95;;;10.10;;
75858;SDS011;64504;51.308;8.620;2023-03-21T00:05:30;13.60;;;10.00;;
75858;SDS011;64504;51.308;8.620;2023-03-21T00:07:56;22.08;;;10.90;;
75858;SDS011;64504;51.308;8.620;2023-03-21T00:10:21;12.23;;;10.88;;
75858;SDS011;64504;51.308;8.620;2023-03-21T00:12:47;12.85;;;11.27;;
75858;SDS011;64504;51.308;8.620;2023-03-21T00:15:22;14.43;;;10.98;;
75858;SDS011;64504;51.308;8.620;2023-03-21T00:17:50;19.40;;;12.20;;
75858;SDS011;64504;51.308;8.620;2023-03-21T00:20:22;14.63;;;10.20;;
75858;SDS011;64504;51.308;8.620;2023-03-21T00:22:48;23.02;;;12.27;;
75858;SDS011;64504;51.308;8.620;2023-03-21T00:25:13;23.58;;;13.80;;
75858;SDS011;64504;51.308;8.620;2023-03-21T00:27:39;22.40;;;10.75;;
75858;SDS011;64504;51.308;8.620;2023-03-21T00:30:05;24.58;;;10.57;;
75858;SDS011;64504;51.308;8.620;2023-03-21T00:32:31;16.98;;;11.20;;
75858;SDS011;64504;51.308;8.620;2023-03-21T00:34:57;18.70;;;11.95;;
75858;SDS011;64504;51.308;8.620;2023-03-21T00:37:22;17.23;;;10.05;;
75858;SDS011;64504;51.308;8.620;2023-03-21T00:39:48;17.92;;;9.98;;
75858;SDS011;64504;51.308;8.620;2023-03-21T00:42:14;13.23;;;10.73;;
75858;SDS011;64504;51.308;8.620;2023-03-21T00:44:40;28.52;;;12.77;;
75858;SDS011;64504;51.308;8.620;2023-03-21T00:47:08;12.40;;;10.20;;
75858;SDS011;64504;51.308;8.620;2023-03-21T00:49:37;20.73;;;11.60;;
75858;SDS011;64504;51.308;8.620;2023-03-21T00:52:07;16.83;;;10.10;;
75858;SDS011;64504;51.308;8.620;2023-03-21T00:54:34;28.38;;;12.27;;
75858;SDS011;64504;51.308;8.620;2023-03-21T00:57:01;14.60;;;11.05;;
75858;SDS011;64504;51.308;8.620;2023-03-21T00:59:27;21.85;;;12.60;;
75858;SDS011;64504;51.308;8.620;2023-03-21T01:01:53;19.42;;;12.27;;
75858;SDS011;64504;51.308;8.620;2023-03-21T01:04:19;21.10;;;11.88;;
75858;SDS011;64504;51.308;8.620;2023-03-21T01:06:45;20.27;;;12.05;;
75858;SDS011;64504;51.308;8.620;2023-03-21T01:09:16;14.88;;;10.77;;
75858;SDS011;64504;51.308;8.620;2023-03-21T01:11:43;24.17;;;14.82;;
75858;SDS011;64504;51.308;8.620;2023-03-21T01:14:09;23.42;;;12.70;;
75858;SDS011;64504;51.308;8.620;2023-03-21T01:16:35;14.95;;;12.02;;
75858;SDS011;64504;51.308;8.620;2023-03-21T01:19:03;20.85;;;11.00;;
75858;SDS011;64504;51.308;8.620;2023-03-21T01:21:30;18.05;;;11.40;;
75858;SDS011;64504;51.308;8.620;2023-03-21T01:23:56;18.17;;;11.55;;
75858;SDS011;64504;51.308;8.620;2023-03-21T01:26:22;18.35;;;12.60;;
75858;SDS011;64504;51.308;8.620;2023-03-21T01:28:47;25.63;;;12.43;;
75858;SDS011;64504;51.308;8.620;2023-03-21T01:31:13;25.08;;;12.80;;
75858;SDS011;64504;51.308;8.620;2023-03-21T01:33:40;16.35;;;13.30;;
75858;SDS011;64504;51.308;8.620;2023-03-21T01:36:06;25.05;;;14.68;;
75858;SDS011;64504;51.308;8.620;2023-03-21T01:38:40;21.92;;;13.70;;
75858;SDS011;64504;51.308;8.620;2023-03-21T01:41:07;20.25;;;11.73;;
75858;SDS011;64504;51.308;8.620;2023-03-21T01:43:39;18.13;;;13.68;;
75858;SDS011;64504;51.308;8.620;2023-03-21T01:51:29;14.75;;;11.80;;
75858;SDS011;64504;51.308;8.620;2023-03-21T01:53:57;28.70;;;11.90;;
75858;SDS011;64504;51.308;8.620;2023-03-21T01:56:25;19.20;;;12.07;;
75858;SDS011;64504;51.308;8.620;2023-03-21T01:58:55;25.20;;;14.40;;
75858;SDS011;64504;51.308;8.620;2023-03-21T02:01:27;19.55;;;12.98;;
75858;SDS011;64504;51.308;8.620;2023-03-21T02:03:55;20.27;;;14.02;;
75858;SDS011;64504;51.308;8.620;2023-03-21T02:09:02;24.70;;;16.02;;
75858;SDS011;64504;51.308;8.620;2023-03-21T02:11:29;16.42;;;13.27;;
75858;SDS011;64504;51.308;8.620;2023-03-21T02:13:56;18.85;;;13.60;;
75858;SDS011;64504;51.308;8.620;2023-03-21T02:40:39;32.95;;;19.30;;
75858;SDS011;64504;51.308;8.620;2023-03-21T02:46:01;20.55;;;15.95;;
75858;SDS011;64504;51.308;8.620;2023-03-21T02:49:06;29.33;;;16.13;;
75858;SDS011;64504;51.308;8.620;2023-03-21T02:51:37;34.83;;;17.80;;
75858;SDS011;64504;51.308;8.620;2023-03-21T02:54:05;30.77;;;17.83;;
75858;SDS011;64504;51.308;8.620;2023-03-21T02:56:33;30.27;;;18.52;;
75858;SDS011;64504;51.308;8.620;2023-03-21T02:59:01;25.55;;;16.17;;
75858;SDS011;64504;51.308;8.620;2023-03-21T03:01:28;37.05;;;18.80;;
75858;SDS011;64504;51.308;8.620;2023-03-21T03:03:54;26.35;;;18.20;;
75858;SDS011;64504;51.308;8.620;2023-03-21T03:06:28;30.40;;;21.10;;
75858;SDS011;64504;51.308;8.620;2023-03-21T03:20:37;28.35;;;19.70;;
75858;SDS011;64504;51.308;8.620;2023-03-21T03:23:04;34.65;;;18.33;;
75858;SDS011;64504;51.308;8.620;2023-03-21T03:25:43;26.75;;;20.35;;
75858;SDS011;64504;51.308;8.620;2023-03-21T03:28:13;28.02;;;18.23;;
75858;SDS011;64504;51.308;8.620;2023-03-21T03:30:41;32.28;;;20.35;;
75858;SDS011;64504;51.308;8.620;2023-03-21T03:33:07;36.35;;;19.70;;
75858;SDS011;64504;51.308;8.620;2023-03-21T03:35:34;29.05;;;21.08;;
75858;SDS011;64504;51.308;8.620;2023-03-21T03:38:01;50.17;;;21.13;;
75858;SDS011;64504;51.308;8.620;2023-03-21T03:40:39;29.45;;;22.85;;
75858;SDS011;64504;51.308;8.620;2023-03-21T03:43:08;35.35;;;23.67;;
75858;SDS011;64504;51.308;8.620;2023-03-21T03:45:39;39.92;;;23.08;;
75858;SDS011;64504;51.308;8.620;2023-03-21T03:48:13;46.00;;;29.20;;
75858;SDS011;64504;51.308;8.620;2023-03-21T03:53:40;47.80;;;27.33;;
75858;SDS011;64504;51.308;8.620;2023-03-21T03:56:06;45.65;;;30.05;;
75858;SDS011;64504;51.308;8.620;2023-03-21T03:58:33;46.05;;;28.85;;
75858;SDS011;64504;51.308;8.620;2023-03-21T04:00:59;45.47;;;30.98;;
75858;SDS011;64504;51.308;8.620;2023-03-21T04:03:25;45.03;;;26.40;;
75858;SDS011;64504;51.308;8.620;2023-03-21T04:05:51;38.47;;;24.45;;
75858;SDS011;64504;51.308;8.620;2023-03-21T04:08:18;54.42;;;26.27;;
75858;SDS011;64504;51.308;8.620;2023-03-21T04:10:43;51.38;;;24.88;;
75858;SDS011;64504;51.308;8.620;2023-03-21T04:13:09;33.45;;;21.63;;
75858;SDS011;64504;51.308;8.620;2023-03-21T04:15:34;41.17;;;23.08;;
75858;SDS011;64504;51.308;8.620;2023-03-21T04:18:00;45.25;;;24.15;;
75858;SDS011;64504;51.308;8.620;2023-03-21T04:20:26;40.15;;;23.15;;
75858;SDS011;64504;51.308;8.620;2023-03-21T04:22:51;50.55;;;24.98;;
75858;SDS011;64504;51.308;8.620;2023-03-21T04:25:18;40.03;;;23.73;;
75858;SDS011;64504;51.308;8.620;2023-03-21T04:27:43;44.28;;;24.67;;
75858;SDS011;64504;51.308;8.620;2023-03-21T04:30:10;40.92;;;21.55;;
75858;SDS011;64504;51.308;8.620;2023-03-21T04:32:37;30.58;;;21.05;;
75858;SDS011;64504;51.308;8.620;2023-03-21T04:35:05;36.50;;;17.13;;
75858;SDS011;64504;51.308;8.620;2023-03-21T04:37:32;31.08;;;18.30;;
75858;SDS011;64504;51.308;8.620;2023-03-21T04:39:58;25.90;;;16.27;;
75858;SDS011;64504;51.308;8.620;2023-03-21T04:42:24;44.63;;;19.70;;
75858;SDS011;64504;51.308;8.620;2023-03-21T04:44:49;30.60;;;16.92;;
75858;SDS011;64504;51.308;8.620;2023-03-21T04:47:15;22.73;;;17.58;;
75858;SDS011;64504;51.308;8.620;2023-03-21T04:49:44;30.33;;;18.48;;
75858;SDS011;64504;51.308;8.620;2023-03-21T04:52:12;34.25;;;18.10;;
75858;SDS011;64504;51.308;8.620;2023-03-21T04:54:38;24.20;;;19.38;;
75858;SDS011;64504;51.308;8.620;2023-03-21T04:57:03;27.25;;;18.25;;
75858;SDS011;64504;51.308;8.620;2023-03-21T04:59:29;31.95;;;17.65;;
75858;SDS011;64504;51.308;8.620;2023-03-21T05:01:54;22.40;;;15.75;;
75858;SDS011;64504;51.308;8.620;2023-03-21T05:04:22;28.42;;;15.77;;
75858;SDS011;64504;51.308;8.620;2023-03-21T05:06:48;22.02;;;15.38;;
75858;SDS011;64504;51.308;8.620;2023-03-21T05:09:13;20.95;;;16.33;;
75858;SDS011;64504;51.308;8.620;2023-03-21T05:11:39;40.78;;;16.92;;
75858;SDS011;64504;51.308;8.620;2023-03-21T05:14:06;21.77;;;14.23;;
75858;SDS011;64504;51.308;8.620;2023-03-21T05:16:33;23.92;;;16.98;;
75858;SDS011;64504;51.308;8.620;2023-03-21T05:19:00;30.50;;;15.80;;
75858;SDS011;64504;51.308;8.620;2023-03-21T05:21:32;23.35;;;14.55;;
75858;SDS011;64504;51.308;8.620;2023-03-21T05:24:11;33.33;;;15.80;;
75858;SDS011;64504;51.308;8.620;2023-03-21T05:26:39;21.40;;;13.55;;
75858;SDS011;64504;51.308;8.620;2023-03-21T05:29:05;22.02;;;14.48;;
75858;SDS011;64504;51.308;8.620;2023-03-21T05:31:31;18.65;;;13.13;;
75858;SDS011;64504;51.308;8.620;2023-03-21T05:33:56;20.65;;;14.25;;
75858;SDS011;64504;51.308;8.620;2023-03-21T05:36:22;29.55;;;15.40;;
75858;SDS011;64504;51.308;8.620;2023-03-21T05:38:47;29.38;;;15.45;;
75858;SDS011;64504;51.308;8.620;2023-03-21T05:41:13;21.90;;;17.70;;
75858;SDS011;64504;51.308;8.620;2023-03-21T05:43:39;31.13;;;17.38;;
75858;SDS011;64504;51.308;8.620;2023-03-21T05:46:05;24.48;;;16.15;;
75858;SDS011;64504;51.308;8.620;2023-03-21T05:48:31;26.02;;;16.90;;
75858;SDS011;64504;51.308;8.620;2023-03-21T05:50:56;29.63;;;17.90;;
75858;SDS011;64504;51.308;8.620;2023-03-21T05:53:22;22.40;;;15.75;;
75858;SDS011;64504;51.308;8.620;2023-03-21T05:55:47;21.65;;;15.85;;
75858;SDS011;64504;51.308;8.620;2023-03-21T05:58:13;22.02;;;15.10;;
75858;SDS011;64504;51.308;8.620;2023-03-21T06:00:38;21.60;;;15.55;;
75858;SDS011;64504;51.308;8.620;2023-03-21T06:03:04;18.20;;;14.63;;
75858;SDS011;64504;51.308;8.620;2023-03-21T06:05:30;25.25;;;17.30;;
75858;SDS011;64504;51.308;8.620;2023-03-21T06:07:56;23.70;;;14.65;;
75858;SDS011;64504;51.308;8.620;2023-03-21T06:10:22;24.70;;;14.52;;
75858;SDS011;64504;51.308;8.620;2023-03-21T06:12:48;24.77;;;16.45;;
75858;SDS011;64504;51.308;8.620;2023-03-21T06:15:13;24.05;;;16.20;;
75858;SDS011;64504;51.308;8.620;2023-03-21T06:17:39;24.40;;;18.30;;
75858;SDS011;64504;51.308;8.620;2023-03-21T06:20:05;26.27;;;15.98;;
75858;SDS011;64504;51.308;8.620;2023-03-21T06:22:31;22.08;;;17.80;;
75858;SDS011;64504;51.308;8.620;2023-03-21T06:24:59;23.50;;;17.85;;
75858;SDS011;64504;51.308;8.620;2023-03-21T06:27:24;29.25;;;19.63;;
75858;SDS011;64504;51.308;8.620;2023-03-21T06:29:50;28.58;;;18.52;;
75858;SDS011;64504;51.308;8.620;2023-03-21T06:32:15;33.13;;;19.40;;
75858;SDS011;64504;51.308;8.620;2023-03-21T06:34:41;30.52;;;18.73;;
75858;SDS011;64504;51.308;8.620;2023-03-21T06:37:07;30.40;;;17.52;;
75858;SDS011;64504;51.308;8.620;2023-03-21T06:39:32;20.42;;;15.15;;
75858;SDS011;64504;51.308;8.620;2023-03-21T06:41:58;20.63;;;15.70;;
75858;SDS011;64504;51.308;8.620;2023-03-21T06:44:24;27.52;;;16.10;;
75858;SDS011;64504;51.308;8.620;2023-03-21T06:46:50;22.48;;;15.63;;
75858;SDS011;64504;51.308;8.620;2023-03-21T06:49:16;26.15;;;17.00;;
75858;SDS011;64504;51.308;8.620;2023-03-21T06:51:42;24.08;;;15.48;;
75858;SDS011;64504;51.308;8.620;2023-03-21T06:54:08;17.98;;;13.93;;
75858;SDS011;64504;51.308;8.620;2023-03-21T06:56:33;22.25;;;14.57;;
75858;SDS011;64504;51.308;8.620;2023-03-21T06:58:59;19.17;;;13.13;;
75858;SDS011;64504;51.308;8.620;2023-03-21T07:01:24;21.88;;;13.80;;
75858;SDS011;64504;51.308;8.620;2023-03-21T07:03:53;16.40;;;11.90;;
75858;SDS011;64504;51.308;8.620;2023-03-21T07:06:20;22.70;;;11.35;;
75858;SDS011;64504;51.308;8.620;2023-03-21T07:08:46;16.20;;;11.93;;
75858;SDS011;64504;51.308;8.620;2023-03-21T07:11:12;18.13;;;11.05;;
75858;SDS011;64504;51.308;8.620;2023-03-21T07:13:37;21.73;;;13.07;;
75858;SDS011;64504;51.308;8.620;2023-03-21T07:16:03;15.57;;;10.85;;
75858;SDS011;64504;51.308;8.620;2023-03-21T07:18:28;12.20;;;10.13;;
75858;SDS011;64504;51.308;8.620;2023-03-21T07:20:55;18.27;;;11.43;;
75858;SDS011;64504;51.308;8.620;2023-03-21T07:23:21;20.98;;;11.95;;
75858;SDS011;64504;51.308;8.620;2023-03-21T07:25:48;16.40;;;10.95;;
75858;SDS011;64504;51.308;8.620;2023-03-21T07:28:14;21.70;;;10.20;;
75858;SDS011;64504;51.308;8.620;2023-03-21T07:30:42;15.90;;;8.77;;
75858;SDS011;64504;51.308;8.620;2023-03-21T07:33:08;14.55;;;8.88;;
75858;SDS011;64504;51.308;8.620;2023-03-21T07:35:34;14.10;;;8.32;;
75858;SDS011;64504;51.308;8.620;2023-03-21T07:38:02;11.02;;;9.27;;
75858;SDS011;64504;51.308;8.620;2023-03-21T07:40:30;12.88;;;7.97;;
75858;SDS011;64504;51.308;8.620;2023-03-21T07:42:56;17.25;;;7.45;;
75858;SDS011;64504;51.308;8.620;2023-03-21T07:45:21;17.60;;;7.85;;
75858;SDS011;64504;51.308;8.620;2023-03-21T07:47:49;16.95;;;7.80;;
75858;SDS011;64504;51.308;8.620;2023-03-21T07:50:15;11.68;;;7.00;;
75858;SDS011;64504;51.308;8.620;2023-03-21T07:52:41;12.82;;;7.15;;
75858;SDS011;64504;51.308;8.620;2023-03-21T07:55:06;16.00;;;7.80;;
75858;SDS011;64504;51.308;8.620;2023-03-21T07:57:32;13.38;;;9.32;;
75858;SDS011;64504;51.308;8.620;2023-03-21T07:59:57;24.17;;;10.43;;
75858;SDS011;64504;51.308;8.620;2023-03-21T08:02:23;14.90;;;8.98;;
75858;SDS011;64504;51.308;8.620;2023-03-21T08:04:49;16.67;;;9.10;;
75858;SDS011;64504;51.308;8.620;2023-03-21T08:07:15;11.23;;;8.75;;
75858;SDS011;64504;51.308;8.620;2023-03-21T08:09:41;18.98;;;10.68;;
75858;SDS011;64504;51.308;8.620;2023-03-21T08:12:07;22.40;;;10.43;;
75858;SDS011;64504;51.308;8.620;2023-03-21T08:14:33;16.77;;;9.10;;
75858;SDS011;64504;51.308;8.620;2023-03-21T08:16:59;18.88;;;8.35;;
75858;SDS011;64504;51.308;8.620;2023-03-21T08:19:24;12.02;;;10.23;;
75858;SDS011;64504;51.308;8.620;2023-03-21T08:21:51;19.95;;;10.13;;
75858;SDS011;64504;51.308;8.620;2023-03-21T08:24:18;17.90;;;10.10;;
75858;SDS011;64504;51.308;8.620;2023-03-21T08:26:43;15.25;;;10.73;;
75858;SDS011;64504;51.308;8.620;2023-03-21T08:29:10;9.90;;;7.15;;
75858;SDS011;64504;51.308;8.620;2023-03-21T08:31:36;21.02;;;10.70;;
75858;SDS011;64504;51.308;8.620;2023-03-21T08:34:02;15.05;;;8.75;;
75858;SDS011;64504;51.308;8.620;2023-03-21T08:36:27;22.05;;;10.75;;
75858;SDS011;64504;51.308;8.620;2023-03-21T08:38:54;22.08;;;9.80;;
75858;SDS011;64504;51.308;8.620;2023-03-21T08:41:28;25.25;;;10.43;;
75858;SDS011;64504;51.308;8.620;2023-03-21T08:43:54;18.45;;;8.90;;
75858;SDS011;64504;51.308;8.620;2023-03-21T08:46:19;18.58;;;8.35;;
75858;SDS011;64504;51.308;8.620;2023-03-21T08:48:44;19.20;;;8.50;;
75858;SDS011;64504;51.308;8.620;2023-03-21T08:51:10;11.45;;;8.20;;
75858;SDS011;64504;51.308;8.620;2023-03-21T08:53:35;10.90;;;7.57;;
75858;SDS011;64504;51.308;8.620;2023-03-21T08:56:01;9.48;;;7.72;;
75858;SDS011;64504;51.308;8.620;2023-03-21T08:58:26;14.35;;;7.68;;
75858;SDS011;64504;51.308;8.620;2023-03-21T09:00:52;12.93;;;6.43;;
75858;SDS011;64504;51.308;8.620;2023-03-21T09:03:19;19.83;;;7.50;;
75858;SDS011;64504;51.308;8.620;2023-03-21T09:05:44;15.95;;;7.95;;
75858;SDS011;64504;51.308;8.620;2023-03-21T09:08:11;13.15;;;6.88;;
75858;SDS011;64504;51.308;8.620;2023-03-21T09:10:37;21.95;;;8.45;;
75858;SDS011;64504;51.308;8.620;2023-03-21T09:13:03;18.10;;;8.18;;
75858;SDS011;64504;51.308;8.620;2023-03-21T09:15:28;17.38;;;8.07;;
75858;SDS011;64504;51.308;8.620;2023-03-21T09:17:54;12.07;;;7.03;;
75858;SDS011;64504;51.308;8.620;2023-03-21T09:20:22;8.02;;;7.22;;
75858;SDS011;64504;51.308;8.620;2023-03-21T09:22:57;11.15;;;6.32;;
75858;SDS011;64504;51.308;8.620;2023-03-21T09:25:23;21.70;;;6.88;;
75858;SDS011;64504;51.308;8.620;2023-03-21T09:27:49;10.30;;;6.28;;
75858;SDS011;64504;51.308;8.620;2023-03-21T09:30:17;11.02;;;6.50;;
75858;SDS011;64504;51.308;8.620;2023-03-21T09:32:44;12.65;;;6.72;;
75858;SDS011;64504;51.308;8.620;2023-03-21T09:35:13;7.70;;;5.93;;
75858;SDS011;64504;51.308;8.620;2023-03-21T09:37:40;15.90;;;6.40;;
75858;SDS011;64504;51.308;8.620;2023-03-21T09:40:17;22.65;;;6.93;;
75858;SDS011;64504;51.308;8.620;2023-03-21T09:45:41;9.52;;;6.35;;
75858;SDS011;64504;51.308;8.620;2023-03-21T09:48:16;12.77;;;8.13;;
75858;SDS011;64504;51.308;8.620;2023-03-21T09:50:57;15.52;;;7.90;;
75858;SDS011;64504;51.308;8.620;2023-03-21T09:53:33;15.55;;;7.47;;
75858;SDS011;64504;51.308;8.620;2023-03-21T09:56:00;9.05;;;7.38;;
75858;SDS011;64504;51.308;8.620;2023-03-21T10:01:02;13.23;;;7.05;;
75858;SDS011;64504;51.308;8.620;2023-03-21T10:03:32;14.63;;;7.45;;
75858;SDS011;64504;51.308;8.620;2023-03-21T10:06:04;14.10;;;8.25;;
75858;SDS011;64504;51.308;8.620;2023-03-21T10:08:38;10.43;;;8.07;;
75858;SDS011;64504;51.308;8.620;2023-03-21T10:11:09;9.93;;;8.90;;
75858;SDS011;64504;51.308;8.620;2023-03-21T10:13:52;13.02;;;8.75;;
75858;SDS011;64504;51.308;8.620;2023-03-21T10:16:30;8.98;;;7.80;;
75858;SDS011;64504;51.308;8.620;2023-03-21T10:19:02;9.48;;;8.15;;
75858;SDS011;64504;51.308;8.620;2023-03-21T10:21:29;13.88;;;9.32;;
75858;SDS011;64504;51.308;8.620;2023-03-21T10:23:56;19.23;;;9.63;;
75858;SDS011;64504;51.308;8.620;2023-03-21T10:26:23;15.43;;;8.13;;
75858;SDS011;64504;51.308;8.620;2023-03-21T10:28:50;10.32;;;9.23;;
75858;SDS011;64504;51.308;8.620;2023-03-21T10:31:17;9.27;;;7.40;;
75858;SDS011;64504;51.308;8.620;2023-03-21T10:33:45;8.23;;;7.53;;
75858;SDS011;64504;51.308;8.620;2023-03-21T10:38:46;11.57;;;8.63;;
75858;SDS011;64504;51.308;8.620;2023-03-21T10:41:13;19.55;;;8.88;;
75858;SDS011;64504;51.308;8.620;2023-03-21T10:43:39;7.72;;;6.93;;
75858;SDS011;64504;51.308;8.620;2023-03-21T10:46:23;15.80;;;6.53;;
75858;SDS011;64504;51.308;8.620;2023-03-21T10:48:52;10.15;;;7.72;;
75858;SDS011;64504;51.308;8.620;2023-03-21T10:51:18;9.30;;;6.85;;
75858;SDS011;64504;51.308;8.620;2023-03-21T10:53:49;11.85;;;6.88;;
75858;SDS011;64504;51.308;8.620;2023-03-21T10:56:30;9.05;;;7.53;;
75858;SDS011;64504;51.308;8.620;2023-03-21T10:58:59;10.63;;;6.60;;
75858;SDS011;64504;51.308;8.620;2023-03-21T11:01:35;8.88;;;6.95;;
75858;SDS011;64504;51.308;8.620;2023-03-21T11:04:23;7.15;;;5.15;;
75858;SDS011;64504;51.308;8.620;2023-03-21T11:06:54;7.53;;;6.40;;
75858;SDS011;64504;51.308;8.620;2023-03-21T11:09:22;12.52;;;5.85;;
75858;SDS011;64504;51.308;8.620;2023-03-21T11:11:50;6.30;;;5.60;;
75858;SDS011;64504;51.308;8.620;2023-03-21T11:14:37;10.98;;;5.35;;
75858;SDS011;64504;51.308;8.620;2023-03-21T11:19:46;5.35;;;4.50;;
75858;SDS011;64504;51.308;8.620;2023-03-21T11:22:12;5.72;;;3.65;;
75858;SDS011;64504;51.308;8.620;2023-03-21T11:24:39;7.15;;;5.65;;
75858;SDS011;64504;51.308;8.620;2023-03-21T11:27:06;7.47;;;4.95;;
75858;SDS011;64504;51.308;8.620;2023-03-21T11:29:33;6.63;;;4.82;;
75858;SDS011;64504;51.308;8.620;2023-03-21T11:32:01;7.07;;;4.30;;
75858;SDS011;64504;51.308;8.620;2023-03-21T11:34:43;11.27;;;6.25;;
75858;SDS011;64504;51.308;8.620;2023-03-21T11:37:19;6.22;;;4.45;;
75858;SDS011;64504;51.308;8.620;2023-03-21T11:39:48;6.30;;;4.18;;
75858;SDS011;64504;51.308;8.620;2023-03-21T11:42:31;5.38;;;4.75;;
75858;SDS011;64504;51.308;8.620;2023-03-21T11:45:02;6.93;;;4.13;;
75858;SDS011;64504;51.308;8.620;2023-03-21T11:47:31;5.35;;;3.72;;
75858;SDS011;64504;51.308;8.620;2023-03-21T11:49:57;8.10;;;3.88;;
75858;SDS011;64504;51.308;8.620;2023-03-21T11:52:25;5.18;;;3.80;;
75858;SDS011;64504;51.308;8.620;2023-03-21T11:55:17;7.35;;;4.28;;
75858;SDS011;64504;51.308;8.620;2023-03-21T12:00:28;4.78;;;3.17;;
75858;SDS011;64504;51.308;8.620;2023-03-21T12:05:28;8.75;;;2.67;;
75858;SDS011;64504;51.308;8.620;2023-03-21T12:10:39;3.78;;;2.97;;
75858;SDS011;64504;51.308;8.620;2023-03-21T12:13:11;2.35;;;2.15;;
75858;SDS011;64504;51.308;8.620;2023-03-21T12:20:59;3.17;;;2.72;;
75858;SDS011;64504;51.308;8.620;2023-03-21T12:23:56;3.75;;;2.63;;
75858;SDS011;64504;51.308;8.620;2023-03-21T12:36:02;6.60;;;2.92;;
75858;SDS011;64504;51.308;8.620;2023-03-21T12:38:08;2.60;;;2.22;;
75858;SDS011;64504;51.308;8.620;2023-03-21T12:45:59;4.88;;;1.85;;
75858;SDS011;64504;51.308;8.620;2023-03-21T12:48:32;5.28;;;2.58;;
75858;SDS011;64504;51.308;8.620;2023-03-21T12:51:03;2.47;;;2.25;;
75858;SDS011;64504;51.308;8.620;2023-03-21T12:53:43;4.13;;;1.80;;
75858;SDS011;64504;51.308;8.620;2023-03-21T12:59:31;2.25;;;1.35;;
75858;SDS011;64504;51.308;8.620;2023-03-21T13:02:25;2.53;;;1.90;;
75858;SDS011;64504;51.308;8.620;2023-03-21T13:04:57;1.88;;;1.77;;
75858;SDS011;64504;51.308;8.620;2023-03-21T13:07:44;2.60;;;2.13;;
75858;SDS011;64504;51.308;8.620;2023-03-21T13:10:15;5.88;;;2.00;;
75858;SDS011;64504;51.308;8.620;2023-03-21T13:18:28;4.03;;;2.30;;
75858;SDS011;64504;51.308;8.620;2023-03-21T13:24:03;6.30;;;2.10;;
75858;SDS011;64504;51.308;8.620;2023-03-21T13:26:40;8.05;;;2.45;;
75858;SDS011;64504;51.308;8.620;2023-03-21T13:29:13;2.85;;;2.45;;
75858;SDS011;64504;51.308;8.620;2023-03-21T13:32:06;4.60;;;2.40;;
75858;SDS011;64504;51.308;8.620;2023-03-21T13:34:33;2.88;;;2.58;;
75858;SDS011;64504;51.308;8.620;2023-03-21T13:36:59;4.75;;;3.33;;
75858;SDS011;64504;51.308;8.620;2023-03-21T13:39:26;9.50;;;4.53;;
75858;SDS011;64504;51.308;8.620;2023-03-21T13:41:53;4.63;;;3.33;;
75858;SDS011;64504;51.308;8.620;2023-03-21T13:47:49;4.50;;;4.05;;
75858;SDS011;64504;51.308;8.620;2023-03-21T13:52:42;5.78;;;4.00;;
75858;SDS011;64504;51.308;8.620;2023-03-21T13:55:19;3.03;;;2.78;;
75858;SDS011;64504;51.308;8.620;2023-03-21T13:57:47;4.75;;;4.07;;
75858;SDS011;64504;51.308;8.620;2023-03-21T14:00:31;3.60;;;2.65;;
75858;SDS011;64504;51.308;8.620;2023-03-21T14:03:12;3.67;;;3.35;;
75858;SDS011;64504;51.308;8.620;2023-03-21T14:05:41;8.43;;;3.63;;
75858;SDS011;64504;51.308;8.620;2023-03-21T14:08:14;4.75;;;3.03;;
75858;SDS011;64504;51.308;8.620;2023-03-21T14:10:42;3.97;;;3.55;;
75858;SDS011;64504;51.308;8.620;2023-03-21T14:13:10;3.25;;;2.95;;
75858;SDS011;64504;51.308;8.620;2023-03-21T14:15:44;4.97;;;2.88;;
75858;SDS011;64504;51.308;8.620;2023-03-21T14:18:18;2.78;;;2.38;;
75858;SDS011;64504;51.308;8.620;2023-03-21T14:20:44;2.55;;;1.88;;
75858;SDS011;64504;51.308;8.620;2023-03-21T14:23:14;1.90;;;1.75;;
75858;SDS011;64504;51.308;8.620;2023-03-21T14:25:41;4.22;;;2.78;;
75858;SDS011;64504;51.308;8.620;2023-03-21T14:28:14;1.55;;;1.40;;
75858;SDS011;64504;51.308;8.620;2023-03-21T14:30:44;2.72;;;1.50;;
75858;SDS011;64504;51.308;8.620;2023-03-21T14:35:56;2.75;;;2.10;;
75858;SDS011;64504;51.308;8.620;2023-03-21T14:38:24;5.10;;;2.00;;
75858;SDS011;64504;51.308;8.620;2023-03-21T14:40:52;2.55;;;1.98;;
75858;SDS011;64504;51.308;8.620;2023-03-21T14:43:19;3.97;;;1.73;;
75858;SDS011;64504;51.308;8.620;2023-03-21T14:45:46;3.40;;;1.67;;
75858;SDS011;64504;51.308;8.620;2023-03-21T14:48:13;4.28;;;1.65;;
75858;SDS011;64504;51.308;8.620;2023-03-21T14:53:25;2.45;;;1.90;;
75858;SDS011;64504;51.308;8.620;2023-03-21T14:55:55;8.95;;;1.75;;
75858;SDS011;64504;51.308;8.620;2023-03-21T14:58:23;2.55;;;2.13;;
75858;SDS011;64504;51.308;8.620;2023-03-21T15:00:50;0.93;;;0.93;;
75858;SDS011;64504;51.308;8.620;2023-03-21T15:03:16;2.40;;;2.20;;
75858;SDS011;64504;51.308;8.620;2023-03-21T15:05:43;6.07;;;2.25;;
75858;SDS011;64504;51.308;8.620;2023-03-21T15:08:16;2.85;;;2.25;;
75858;SDS011;64504;51.308;8.620;2023-03-21T15:10:53;4.93;;;1.63;;
75858;SDS011;64504;51.308;8.620;2023-03-21T15:13:19;3.25;;;2.10;;
75858;SDS011;64504;51.308;8.620;2023-03-21T15:15:47;2.92;;;2.05;;
75858;SDS011;64504;51.308;8.620;2023-03-21T15:18:35;5.72;;;3.03;;
75858;SDS011;64504;51.308;8.620;2023-03-21T15:25:54;2.15;;;2.05;;
75858;SDS011;64504;51.308;8.620;2023-03-21T15:28:20;2.83;;;1.67;;
75858;SDS011;64504;51.308;8.620;2023-03-21T15:30:49;2.60;;;1.67;;
75858;SDS011;64504;51.308;8.620;2023-03-21T15:33:16;11.05;;;3.53;;
75858;SDS011;64504;51.308;8.620;2023-03-21T15:35:43;1.88;;;1.33;;
75858;SDS011;64504;51.308;8.620;2023-03-21T15:43:45;2.33;;;2.10;;
75858;SDS011;64504;51.308;8.620;2023-03-21T15:46:16;2.15;;;1.98;;
75858;SDS011;64504;51.308;8.620;2023-03-21T15:48:43;3.65;;;2.47;;
75858;SDS011;64504;51.308;8.620;2023-03-21T15:51:17;2.25;;;2.05;;
75858;SDS011;64504;51.308;8.620;2023-03-21T15:53:45;3.28;;;2.15;;
75858;SDS011;64504;51.308;8.620;2023-03-21T15:56:11;3.25;;;1.88;;
75858;SDS011;64504;51.308;8.620;2023-03-21T15:58:44;7.35;;;2.33;;
75858;SDS011;64504;51.308;8.620;2023-03-21T16:01:13;1.98;;;1.73;;
75858;SDS011;64504;51.308;8.620;2023-03-21T16:03:42;2.08;;;1.88;;
75858;SDS011;64504;51.308;8.620;2023-03-21T16:09:33;2.88;;;2.22;;
75858;SDS011;64504;51.308;8.620;2023-03-21T16:11:49;3.25;;;2.72;;
75858;SDS011;64504;51.308;8.620;2023-03-21T16:14:15;4.05;;;2.30;;
75858;SDS011;64504;51.308;8.620;2023-03-21T16:16:42;6.88;;;2.72;;
75858;SDS011;64504;51.308;8.620;2023-03-21T16:19:08;1.52;;;1.42;;
75858;SDS011;64504;51.308;8.620;2023-03-21T16:21:34;4.32;;;2.22;;
75858;SDS011;64504;51.308;8.620;2023-03-21T16:24:02;2.42;;;1.98;;
75858;SDS011;64504;51.308;8.620;2023-03-21T16:26:30;6.68;;;2.75;;
75858;SDS011;64504;51.308;8.620;2023-03-21T16:28:57;10.10;;;2.65;;
75858;SDS011;64504;51.308;8.620;2023-03-21T16:31:29;7.95;;;2.65;;
75858;SDS011;64504;51.308;8.620;2023-03-21T16:33:56;6.53;;;2.65;;
75858;SDS011;64504;51.308;8.620;2023-03-21T16:36:23;2.75;;;2.53;;
75858;SDS011;64504;51.308;8.620;2023-03-21T16:38:51;4.75;;;3.13;;
75858;SDS011;64504;51.308;8.620;2023-03-21T16:41:18;2.70;;;2.50;;
75858;SDS011;64504;51.308;8.620;2023-03-21T16:43:44;5.85;;;3.22;;
75858;SDS011;64504;51.308;8.620;2023-03-21T16:48:39;3.15;;;2.65;;